Time;durP1;ratioP1;P1;durP2;ratioP2;P2;SDS_P1;SDS_P2;PMS_P1;PMS_P2;Temp;Humidity;BMP_temperature;BMP_pressure;BME280_temperature;BME280_humidity;BME280_pressure;Samples;Min_cycle;Max_cycle;Signal;HPM_P1;HPM_P2
2021/09/18 00:01:19;;;;;;;5.20;4.68;;;12.30;76.80;;;;;;4997407;28;20038;-70
2021/09/18 00:03:44;;;;;;;5.72;4.88;;;12.30;77.00;;;;;;4998385;28;20048;-67
2021/09/18 00:06:10;;;;;;;4.60;4.20;;;12.30;77.30;;;;;;5010894;28;20045;-68
2021/09/18 00:08:36;;;;;;;6.88;4.45;;;12.30;77.40;;;;;;4999626;28;20121;-68
2021/09/18 00:11:02;;;;;;;5.30;4.80;;;12.40;77.20;;;;;;4997469;28;20133;-68
2021/09/18 00:13:29;;;;;;;5.47;4.57;;;12.40;77.00;;;;;;4996160;28;20086;-68
2021/09/18 00:15:55;;;;;;;5.53;4.90;;;12.40;76.70;;;;;;4994868;28;20564;-68
2021/09/18 00:18:21;;;;;;;5.60;4.80;;;12.40;76.50;;;;;;4996137;28;20129;-68
2021/09/18 00:20:46;;;;;;;6.10;5.15;;;12.40;76.50;;;;;;4997920;28;20540;-69
2021/09/18 00:23:12;;;;;;;7.03;4.80;;;12.40;76.70;;;;;;5000727;28;20132;-68
2021/09/18 00:25:38;;;;;;;5.20;4.57;;;12.40;76.90;;;;;;4999423;28;20394;-68
2021/09/18 00:28:03;;;;;;;5.05;4.57;;;12.50;76.80;;;;;;5014965;28;20515;-68
2021/09/18 00:30:29;;;;;;;5.63;5.03;;;12.50;76.60;;;;;;4999002;28;20041;-68
2021/09/18 00:32:54;;;;;;;7.03;4.75;;;12.50;76.30;;;;;;4998786;28;20035;-68
2021/09/18 00:35:20;;;;;;;6.93;4.60;;;12.50;76.10;;;;;;5000332;28;20183;-70
2021/09/18 00:37:47;;;;;;;4.80;4.35;;;12.50;76.00;;;;;;5003276;28;20034;-68
2021/09/18 00:40:12;;;;;;;6.50;5.22;;;12.50;76.10;;;;;;5000019;28;20042;-69
2021/09/18 00:42:38;;;;;;;6.53;5.10;;;12.50;75.80;;;;;;5000883;28;20064;-68
2021/09/18 00:45:04;;;;;;;4.97;4.50;;;12.50;75.60;;;;;;5002352;28;20052;-68
2021/09/18 00:47:30;;;;;;;5.30;4.80;;;12.50;75.60;;;;;;5000739;28;20034;-68
2021/09/18 00:49:56;;;;;;;6.75;5.03;;;12.50;75.70;;;;;;4999230;28;20041;-68
2021/09/18 00:52:21;;;;;;;5.05;4.53;;;12.40;75.80;;;;;;4999528;28;20180;-67
2021/09/18 00:54:48;;;;;;;5.85;4.72;;;12.40;76.70;;;;;;4997980;28;20618;-69
2021/09/18 00:57:16;;;;;;;6.78;4.45;;;12.40;76.20;;;;;;4999900;28;20121;-68
2021/09/18 00:59:42;;;;;;;6.57;4.88;;;12.40;76.30;;;;;;4999949;28;20033;-69
2021/09/18 01:02:08;;;;;;;5.03;4.53;;;12.40;76.30;;;;;;5000501;28;20137;-68
2021/09/18 01:04:34;;;;;;;5.13;4.63;;;12.40;76.40;;;;;;5000810;28;20405;-69
2021/09/18 01:07:00;;;;;;;5.57;4.78;;;12.50;76.50;;;;;;4998273;28;20038;-68
2021/09/18 01:09:27;;;;;;;6.18;4.80;;;12.50;76.20;;;;;;5001310;28;20033;-68
2021/09/18 01:11:52;;;;;;;6.53;5.32;;;12.50;75.70;;;;;;4997942;28;20056;-68
2021/09/18 01:14:18;;;;;;;6.63;5.53;;;12.50;75.40;;;;;;5001437;28;20505;-69
2021/09/18 01:16:43;;;;;;;5.63;5.03;;;12.50;75.30;;;;;;4998935;28;20034;-68
2021/09/18 01:19:09;;;;;;;5.85;5.28;;;12.40;75.40;;;;;;5014627;28;20189;-68
2021/09/18 01:21:35;;;;;;;6.70;5.95;;;12.30;76.30;;;;;;4998620;28;20049;-68
2021/09/18 01:24:00;;;;;;;10.48;5.72;;;12.20;75.50;;;;;;5002165;28;20038;-69
2021/09/18 01:26:32;;;;;;;6.82;5.53;;;12.10;75.70;;;;;;4999691;28;20034;-68
2021/09/18 01:28:58;;;;;;;6.18;5.57;;;12.10;76.30;;;;;;5015254;28;20044;-68
2021/09/18 01:31:24;;;;;;;6.40;5.43;;;12.00;76.50;;;;;;4999769;28;20630;-68
2021/09/18 01:33:50;;;;;;;6.28;5.68;;;12.00;76.70;;;;;;4998127;28;20038;-68
2021/09/18 01:36:16;;;;;;;7.90;6.00;;;12.00;76.60;;;;;;5001072;28;20081;-67
2021/09/18 01:38:41;;;;;;;6.95;6.25;;;12.00;76.50;;;;;;5002511;28;20026;-68
2021/09/18 01:41:07;;;;;;;6.22;5.63;;;12.00;76.40;;;;;;5001243;28;20509;-68
2021/09/18 01:43:33;;;;;;;6.53;5.70;;;12.00;76.50;;;;;;5000965;28;20058;-68
2021/09/18 01:45:58;;;;;;;7.75;5.90;;;11.90;75.90;;;;;;4998859;28;20408;-67
2021/09/18 01:48:24;;;;;;;6.38;5.78;;;11.90;76.50;;;;;;4997674;28;20054;-68
2021/09/18 01:51:00;;;;;;;6.65;5.55;;;11.90;77.30;;;;;;4999229;28;20030;-68
2021/09/18 01:53:27;;;;;;;6.63;5.40;;;11.90;76.80;;;;;;4999357;28;20046;-68
2021/09/18 01:55:53;;;;;;;8.07;5.53;;;11.90;77.00;;;;;;5000506;28;20030;-68
2021/09/18 01:58:19;;;;;;;6.75;5.38;;;11.90;77.20;;;;;;4999334;28;20088;-68
2021/09/18 02:00:51;;;;;;;6.72;5.10;;;11.90;77.20;;;;;;4999436;28;20112;-68
2021/09/18 02:03:17;;;;;;;6.45;5.25;;;11.90;77.50;;;;;;4997133;28;20073;-69
2021/09/18 02:05:43;;;;;;;6.00;5.32;;;11.90;77.30;;;;;;5000091;28;20037;-69
2021/09/18 02:08:08;;;;;;;7.50;5.20;;;12.00;77.00;;;;;;5000946;28;20088;-68
2021/09/18 02:10:35;;;;;;;6.75;5.25;;;12.00;76.70;;;;;;4999332;28;20029;-68
2021/09/18 02:13:02;;;;;;;6.50;5.50;;;12.00;76.50;;;;;;4998762;28;20108;-70
2021/09/18 02:15:28;;;;;;;5.93;5.18;;;12.00;76.50;;;;;;4998753;28;21003;-66
2021/09/18 02:17:54;;;;;;;6.43;4.97;;;12.10;76.40;;;;;;5000475;28;20528;-68
2021/09/18 02:20:23;;;;;;;8.00;5.55;;;12.10;76.00;;;;;;4998632;28;20070;-68
2021/09/18 02:22:49;;;;;;;8.20;5.45;;;12.00;75.60;;;;;;4996024;28;20069;-68
2021/09/18 02:25:16;;;;;;;6.95;5.40;;;12.00;75.40;;;;;;5002163;28;20061;-68
2021/09/18 02:27:42;;;;;;;9.60;5.35;;;12.00;75.50;;;;;;4997534;28;20041;-69
2021/09/18 02:30:13;;;;;;;7.78;5.78;;;11.90;75.60;;;;;;4997211;28;20030;-68
2021/09/18 02:32:39;;;;;;;6.35;5.22;;;11.90;76.00;;;;;;4997445;28;20050;-68
2021/09/18 02:35:07;;;;;;;8.38;5.68;;;11.90;75.90;;;;;;5000088;28;20030;-68
2021/09/18 02:37:33;;;;;;;11.30;6.28;;;11.90;75.80;;;;;;4998719;28;20058;-68
2021/09/18 02:39:58;;;;;;;7.15;5.63;;;11.90;75.70;;;;;;5013553;28;20065;-68
2021/09/18 02:42:24;;;;;;;6.68;5.97;;;11.90;75.60;;;;;;5000254;28;20500;-68
2021/09/18 02:44:50;;;;;;;7.03;5.45;;;11.90;75.60;;;;;;5000791;28;20034;-69
2021/09/18 02:47:15;;;;;;;7.75;6.40;;;11.80;75.60;;;;;;5003143;28;20037;-67
2021/09/18 02:49:41;;;;;;;7.05;6.35;;;11.80;75.50;;;;;;4998076;28;20038;-67
2021/09/18 02:52:07;;;;;;;7.55;6.13;;;11.80;75.50;;;;;;5000030;28;20033;-67
2021/09/18 02:54:32;;;;;;;7.18;6.18;;;11.70;75.60;;;;;;4997225;28;20034;-67
2021/09/18 02:56:58;;;;;;;7.47;6.45;;;11.60;75.60;;;;;;4999711;28;20045;-68
2021/09/18 02:59:23;;;;;;;7.20;6.05;;;11.60;75.80;;;;;;5000165;28;20045;-68
2021/09/18 03:01:49;;;;;;;7.40;6.70;;;11.50;76.10;;;;;;4998822;28;20068;-68
2021/09/18 03:04:15;;;;;;;7.18;6.35;;;11.50;76.30;;;;;;4999371;28;20035;-69
2021/09/18 03:06:40;;;;;;;6.95;6.25;;;11.50;76.40;;;;;;4998861;28;20162;-68
2021/09/18 03:09:06;;;;;;;7.68;6.40;;;11.50;76.60;;;;;;4996759;28;20121;-67
2021/09/18 03:11:31;;;;;;;8.52;6.43;;;11.50;76.70;;;;;;4996544;28;20103;-68
2021/09/18 03:13:57;;;;;;;7.28;6.13;;;11.50;76.90;;;;;;4998949;28;20450;-69
2021/09/18 03:16:23;;;;;;;7.07;6.38;;;11.50;76.90;;;;;;4994163;28;20094;-68
2021/09/18 03:18:48;;;;;;;7.40;6.38;;;11.50;76.50;;;;;;5011898;28;20042;-68
2021/09/18 03:21:14;;;;;;;9.25;7.00;;;11.50;76.20;;;;;;4997399;28;20034;-68
2021/09/18 03:23:40;;;;;;;8.50;6.85;;;11.50;76.10;;;;;;4998681;28;20080;-69
2021/09/18 03:26:06;;;;;;;7.47;6.30;;;11.50;76.10;;;;;;4997209;28;20042;-68
2021/09/18 03:28:31;;;;;;;7.78;6.80;;;11.40;76.10;;;;;;4999298;28;20061;-68
2021/09/18 03:30:57;;;;;;;7.72;6.93;;;11.40;76.20;;;;;;4996318;28;20030;-68
2021/09/18 03:33:23;;;;;;;7.93;6.90;;;11.30;76.30;;;;;;4999016;28;20034;-68
2021/09/18 03:35:50;;;;;;;15.32;7.03;;;11.30;76.50;;;;;;5001472;28;20034;-67
2021/09/18 03:38:15;;;;;;;7.43;6.65;;;11.30;76.60;;;;;;4995957;28;20034;-67
2021/09/18 03:40:41;;;;;;;7.50;6.70;;;11.20;76.60;;;;;;4996048;28;20412;-67
2021/09/18 03:43:06;;;;;;;7.22;6.47;;;11.20;76.80;;;;;;5000833;28;20038;-68
2021/09/18 03:45:32;;;;;;;8.95;5.97;;;11.20;77.00;;;;;;4996864;28;20029;-67
2021/09/18 03:47:58;;;;;;;8.15;6.35;;;11.20;77.10;;;;;;4997832;28;20125;-67
2021/09/18 03:50:24;;;;;;;7.80;6.80;;;11.20;77.10;;;;;;4998016;28;20038;-68
2021/09/18 03:52:49;;;;;;;9.45;6.30;;;11.30;76.80;;;;;;5000816;28;20553;-68
2021/09/18 03:55:15;;;;;;;12.40;6.15;;;11.20;76.80;;;;;;5002473;28;20042;-69
2021/09/18 03:57:41;;;;;;;6.80;6.07;;;11.20;77.00;;;;;;4997472;28;20128;-68
2021/09/18 04:00:07;;;;;;;6.65;5.50;;;11.20;77.00;;;;;;5001902;28;20038;-68
2021/09/18 04:02:33;;;;;;;6.00;5.40;;;11.20;76.60;;;;;;4997980;28;20061;-69
2021/09/18 04:04:58;;;;;;;5.72;5.22;;;11.20;76.40;;;;;;5005487;28;20069;-68
2021/09/18 04:07:24;;;;;;;6.45;5.80;;;11.20;76.20;;;;;;5001934;28;20062;-67
2021/09/18 04:09:50;;;;;;;7.65;6.05;;;11.10;76.10;;;;;;5003798;28;20511;-68
2021/09/18 04:12:15;;;;;;;8.63;6.75;;;11.10;76.10;;;;;;4999667;28;20058;-67
2021/09/18 04:14:41;;;;;;;7.90;6.88;;;11.00;76.30;;;;;;4999457;28;20480;-68
2021/09/18 04:17:07;;;;;;;8.02;7.22;;;11.00;76.60;;;;;;5000088;28;20037;-67
2021/09/18 04:19:32;;;;;;;7.45;6.65;;;10.90;76.80;;;;;;5003817;28;20042;-68
2021/09/18 04:21:58;;;;;;;8.63;6.38;;;10.90;77.30;;;;;;5002171;28;20041;-68
2021/09/18 04:24:23;;;;;;;7.00;6.18;;;10.80;77.50;;;;;;5002691;28;20598;-68
2021/09/18 04:26:50;;;;;;;8.50;6.75;;;10.80;77.70;;;;;;5002773;28;20034;-68
2021/09/18 04:29:15;;;;;;;9.45;6.80;;;10.90;77.90;;;;;;5000591;28;20039;-68
2021/09/18 04:31:44;;;;;;;7.05;6.07;;;10.90;78.00;;;;;;5005444;28;20039;-67
2021/09/18 04:34:09;;;;;;;6.97;6.13;;;10.90;77.90;;;;;;5004392;28;20041;-67
2021/09/18 04:36:35;;;;;;;6.47;5.80;;;11.00;78.60;;;;;;5002932;28;20027;-67
2021/09/18 04:39:01;;;;;;;6.95;6.25;;;11.00;77.50;;;;;;4999534;28;20540;-69
2021/09/18 04:41:26;;;;;;;7.28;5.95;;;11.00;77.50;;;;;;5000362;28;20149;-68
2021/09/18 04:43:55;;;;;;;6.35;5.75;;;11.10;77.30;;;;;;5001350;28;20030;-68
2021/09/18 04:46:22;;;;;;;7.13;6.40;;;11.10;77.20;;;;;;4999938;28;20074;-67
2021/09/18 04:48:48;;;;;;;9.13;6.78;;;11.10;77.00;;;;;;5000312;28;20053;-67
2021/09/18 04:51:13;;;;;;;8.23;6.55;;;11.10;76.60;;;;;;5001528;28;20030;-68
2021/09/18 04:53:39;;;;;;;7.20;6.30;;;11.10;76.50;;;;;;5002712;28;20117;-68
2021/09/18 04:56:05;;;;;;;7.40;6.70;;;11.10;76.50;;;;;;5000213;28;20105;-67
2021/09/18 04:58:30;;;;;;;6.70;6.00;;;11.10;76.50;;;;;;5002285;28;20493;-67
2021/09/18 05:00:57;;;;;;;7.63;6.70;;;11.10;76.60;;;;;;5001369;28;20030;-68
2021/09/18 05:03:22;;;;;;;6.88;6.18;;;11.00;76.70;;;;;;5000067;28;20064;-69
2021/09/18 05:05:48;;;;;;;7.32;6.40;;;11.00;77.00;;;;;;5000288;28;20061;-69
2021/09/18 05:08:14;;;;;;;7.47;6.13;;;11.10;77.10;;;;;;5001179;28;20046;-67
2021/09/18 05:10:40;;;;;;;6.32;5.72;;;11.10;77.10;;;;;;4999763;28;20674;-67
2021/09/18 05:13:05;;;;;;;7.93;6.45;;;11.10;77.00;;;;;;4999199;28;20038;-68
2021/09/18 05:15:31;;;;;;;7.90;5.82;;;11.20;77.00;;;;;;4998014;28;20026;-67
2021/09/18 05:17:57;;;;;;;8.25;6.32;;;11.20;76.50;;;;;;4998657;28;20038;-68
2021/09/18 05:20:23;;;;;;;6.25;5.65;;;11.20;76.40;;;;;;5000428;28;20030;-69
2021/09/18 05:22:49;;;;;;;6.82;6.10;;;11.20;76.40;;;;;;4999707;28;20057;-69
2021/09/18 05:25:15;;;;;;;8.23;6.22;;;11.20;76.40;;;;;;5002347;28;20132;-68
2021/09/18 05:27:41;;;;;;;7.10;6.40;;;11.20;76.30;;;;;;5002816;28;20058;-67
2021/09/18 05:30:07;;;;;;;8.70;6.50;;;11.20;76.30;;;;;;5000428;28;20523;-68
2021/09/18 05:32:33;;;;;;;7.32;6.18;;;11.10;76.10;;;;;;4997310;28;20035;-68
2021/09/18 05:34:59;;;;;;;7.20;6.45;;;11.10;76.10;;;;;;4997718;28;20038;-65
2021/09/18 05:37:25;;;;;;;8.55;6.30;;;11.10;76.30;;;;;;4999616;28;20532;-67
2021/09/18 05:39:50;;;;;;;7.47;6.63;;;11.10;76.50;;;;;;4999728;28;20096;-67
2021/09/18 05:42:16;;;;;;;6.72;5.85;;;11.00;76.60;;;;;;4999613;28;20038;-68
2021/09/18 05:44:42;;;;;;;6.88;6.03;;;11.00;76.90;;;;;;5000003;28;20072;-68
2021/09/18 05:47:08;;;;;;;8.18;6.78;;;11.10;77.30;;;;;;4998372;28;20437;-68
2021/09/18 05:49:34;;;;;;;9.07;6.53;;;11.10;77.40;;;;;;4999457;28;20181;-69
2021/09/18 05:51:59;;;;;;;9.10;6.57;;;11.10;77.40;;;;;;4998178;28;20042;-68
2021/09/18 05:54:27;;;;;;;8.90;7.00;;;11.10;77.50;;;;;;5000915;28;20116;-66
2021/09/18 05:56:53;;;;;;;8.18;6.82;;;11.20;77.60;;;;;;4996869;28;20035;-68
2021/09/18 05:59:19;;;;;;;9.15;6.63;;;11.20;77.70;;;;;;4998924;28;20140;-67
2021/09/18 06:01:44;;;;;;;8.43;6.90;;;11.30;77.80;;;;;;4994057;28;20125;-67
2021/09/18 06:04:10;;;;;;;9.45;6.93;;;11.30;77.70;;;;;;4998114;28;20085;-67
2021/09/18 06:06:36;;;;;;;9.77;6.93;;;11.30;77.70;;;;;;4997043;28;20033;-68
2021/09/18 06:09:01;;;;;;;11.77;7.63;;;11.30;77.70;;;;;;4995061;28;20056;-68
2021/09/18 06:11:27;;;;;;;8.45;7.50;;;11.40;77.90;;;;;;5000707;28;20084;-68
2021/09/18 06:13:53;;;;;;;8.45;7.28;;;11.50;78.00;;;;;;4999644;28;20156;-67
2021/09/18 06:16:19;;;;;;;8.32;7.53;;;11.50;78.00;;;;;;4995545;28;20127;-67
2021/09/18 06:18:45;;;;;;;10.50;7.18;;;11.50;78.00;;;;;;4996777;28;20046;-67
2021/09/18 06:21:11;;;;;;;10.93;7.43;;;11.60;78.20;;;;;;4996460;28;20544;-69
2021/09/18 06:23:37;;;;;;;8.57;7.50;;;11.60;78.20;;;;;;4995619;28;20082;-67
2021/09/18 06:26:07;;;;;;;12.50;8.02;;;11.70;78.20;;;;;;4995810;28;20428;-67
2021/09/18 06:28:33;;;;;;;10.77;8.23;;;11.70;78.50;;;;;;4994694;28;20608;-67
2021/09/18 06:31:00;;;;;;;9.70;7.70;;;11.80;78.40;;;;;;4994954;28;20041;-69
2021/09/18 06:33:25;;;;;;;9.27;7.38;;;11.70;78.30;;;;;;4997694;28;22314;-68
2021/09/18 06:35:51;;;;;;;9.68;6.88;;;11.80;78.40;;;;;;4998644;28;20042;-68
2021/09/18 06:38:21;;;;;;;10.32;8.13;;;11.80;78.60;;;;;;4993213;28;20038;-69
2021/09/18 06:40:49;;;;;;;13.23;7.90;;;11.90;78.90;;;;;;4986611;28;20038;-68
2021/09/18 06:43:15;;;;;;;8.80;7.65;;;11.90;79.10;;;;;;4989064;28;20037;-68
2021/09/18 06:45:41;;;;;;;9.73;7.45;;;11.90;80.00;;;;;;4988361;28;20061;-67
2021/09/18 06:48:06;;;;;;;9.70;8.40;;;12.00;79.30;;;;;;4987295;28;20497;-69
2021/09/18 06:50:32;;;;;;;11.75;7.93;;;12.00;79.50;;;;;;4992514;28;20045;-69
2021/09/18 06:52:58;;;;;;;11.80;7.95;;;12.10;79.80;;;;;;4984895;28;20081;-69
2021/09/18 06:55:24;;;;;;;11.82;8.30;;;12.10;80.00;;;;;;4988710;28;20124;-66
2021/09/18 06:57:50;;;;;;;13.55;8.18;;;12.20;80.00;;;;;;4988793;28;20058;-69
2021/09/18 07:00:16;;;;;;;10.13;8.63;;;12.20;80.10;;;;;;4985706;28;20156;-66
2021/09/18 07:02:42;;;;;;;10.45;8.77;;;12.30;80.50;;;;;;4986089;28;20096;-68
2021/09/18 07:05:08;;;;;;;12.27;9.82;;;12.30;80.50;;;;;;4989927;28;20035;-69
2021/09/18 07:07:36;;;;;;;14.25;10.00;;;12.40;80.80;;;;;;4991011;28;20041;-69
2021/09/18 07:10:03;;;;;;;11.93;10.45;;;12.40;81.00;;;;;;4985512;28;20065;-70
2021/09/18 07:12:28;;;;;;;14.75;10.02;;;12.50;81.20;;;;;;4988293;28;20041;-67
2021/09/18 07:14:54;;;;;;;13.23;11.07;;;12.50;81.20;;;;;;4989504;28;20046;-68
2021/09/18 07:17:20;;;;;;;16.58;12.88;;;12.60;81.80;;;;;;4989610;28;20041;-68
2021/09/18 07:19:45;;;;;;;14.43;12.35;;;12.70;82.10;;;;;;4980718;28;20663;-69
2021/09/18 07:22:11;;;;;;;15.45;12.40;;;12.70;82.10;;;;;;4989410;28;20038;-68
2021/09/18 07:24:37;;;;;;;17.80;12.48;;;12.80;82.40;;;;;;4982220;28;20738;-68
2021/09/18 07:27:03;;;;;;;14.23;11.90;;;12.90;82.70;;;;;;5000397;28;20670;-68
2021/09/18 07:29:29;;;;;;;14.68;11.15;;;12.90;82.60;;;;;;4988356;28;20048;-68
2021/09/18 07:31:54;;;;;;;16.13;11.60;;;13.00;82.70;;;;;;4992755;28;20042;-69
2021/09/18 07:34:21;;;;;;;12.48;10.43;;;13.00;83.10;;;;;;4999364;28;20042;-67
2021/09/18 07:36:47;;;;;;;14.43;12.38;;;13.10;83.00;;;;;;5001092;28;20458;-68
2021/09/18 07:39:13;;;;;;;17.80;14.18;;;13.30;82.90;;;;;;4994604;28;20156;-68
2021/09/18 07:41:40;;;;;;;18.08;14.35;;;13.30;82.70;;;;;;4999905;28;20045;-68
2021/09/18 07:44:07;;;;;;;16.33;13.15;;;13.40;82.60;;;;;;5001173;28;20413;-67
2021/09/18 07:46:34;;;;;;;17.08;13.35;;;13.50;82.60;;;;;;4995309;28;20517;-69
2021/09/18 07:49:00;;;;;;;15.50;12.50;;;13.50;82.80;;;;;;5012149;28;20205;-68
2021/09/18 07:51:27;;;;;;;14.90;12.10;;;13.60;82.60;;;;;;5003482;28;20159;-68
2021/09/18 07:53:53;;;;;;;13.63;11.55;;;13.70;82.50;;;;;;4995060;28;20042;-68
2021/09/18 07:56:18;;;;;;;18.80;13.07;;;13.80;82.50;;;;;;5000137;28;20026;-68
2021/09/18 07:58:44;;;;;;;17.27;13.13;;;13.80;82.40;;;;;;4997606;28;20042;-68
2021/09/18 08:01:10;;;;;;;14.65;13.07;;;13.90;82.40;;;;;;4995001;28;20513;-68
2021/09/18 08:03:36;;;;;;;16.77;11.38;;;14.00;82.60;;;;;;4997574;28;20030;-69
2021/09/18 08:06:02;;;;;;;15.20;12.35;;;14.10;82.40;;;;;;4996017;28;20045;-68
2021/09/18 08:08:28;;;;;;;17.23;13.20;;;14.10;82.40;;;;;;5008722;28;20103;-68
2021/09/18 08:10:54;;;;;;;13.95;12.02;;;14.20;82.60;;;;;;5014150;28;20030;-68
2021/09/18 08:13:20;;;;;;;13.50;11.68;;;14.30;82.30;;;;;;5001266;28;20061;-68
2021/09/18 08:15:45;;;;;;;15.50;11.80;;;14.30;82.10;;;;;;4997040;28;20034;-67
2021/09/18 08:18:11;;;;;;;16.67;13.45;;;14.40;82.20;;;;;;5013973;28;20092;-68
2021/09/18 08:20:37;;;;;;;15.93;12.95;;;14.50;82.10;;;;;;4997503;28;20042;-68
2021/09/18 08:23:03;;;;;;;15.23;12.18;;;14.60;82.00;;;;;;4999134;28;20472;-69
2021/09/18 08:25:28;;;;;;;16.05;13.25;;;14.70;82.00;;;;;;5001306;28;20034;-69
2021/09/18 08:27:54;;;;;;;14.48;12.82;;;14.80;81.80;;;;;;4998699;28;20045;-66
2021/09/18 08:30:20;;;;;;;14.10;12.57;;;14.90;81.50;;;;;;5000348;28;20035;-66
2021/09/18 08:32:45;;;;;;;13.93;11.60;;;15.00;81.40;;;;;;4999088;28;20041;-68
2021/09/18 08:35:12;;;;;;;14.05;11.38;;;15.10;80.80;;;;;;5000114;28;20033;-68
2021/09/18 08:37:38;;;;;;;13.60;11.27;;;15.10;80.80;;;;;;4999785;28;21784;-68
2021/09/18 08:40:05;;;;;;;12.43;11.00;;;15.20;80.70;;;;;;4998963;28;20039;-68
2021/09/18 08:42:31;;;;;;;13.40;11.30;;;15.40;80.50;;;;;;4997821;28;20037;-68
2021/09/18 08:44:56;;;;;;;13.05;11.20;;;15.40;80.00;;;;;;5002766;28;20038;-71
2021/09/18 08:47:23;;;;;;;12.43;11.02;;;15.50;79.80;;;;;;5004178;28;20655;-70
2021/09/18 08:49:50;;;;;;;12.52;11.02;;;15.60;79.60;;;;;;5003650;28;20042;-69
2021/09/18 08:52:15;;;;;;;12.27;10.77;;;15.80;79.50;;;;;;5003717;28;20031;-69
2021/09/18 08:54:42;;;;;;;15.10;11.65;;;15.80;79.10;;;;;;5002198;28;20042;-70
2021/09/18 08:57:10;;;;;;;12.00;10.45;;;15.90;80.00;;;;;;5002309;28;20060;-71
2021/09/18 08:59:37;;;;;;;12.25;10.35;;;16.10;79.00;;;;;;5001668;28;20040;-68
2021/09/18 09:02:17;;;;;;;11.57;10.35;;;16.10;78.40;;;;;;5002671;28;20724;-71
2021/09/18 09:04:44;;;;;;;12.85;10.77;;;16.20;78.10;;;;;;5001726;28;20103;-70
2021/09/18 09:07:12;;;;;;;12.30;10.43;;;16.30;78.10;;;;;;5003004;28;20065;-69
2021/09/18 09:09:57;;;;;;;13.15;10.20;;;16.40;77.90;;;;;;5002485;28;21653;-70
2021/09/18 09:12:28;;;;;;;12.38;10.85;;;16.50;77.50;;;;;;5000919;28;20034;-71
2021/09/18 09:14:55;;;;;;;13.38;11.98;;;16.60;77.40;;;;;;5001883;28;20509;-70
2021/09/18 09:17:29;;;;;;;15.05;12.38;;;16.70;77.20;;;;;;5002997;28;20121;-71
2021/09/18 09:19:56;;;;;;;13.18;11.38;;;16.70;76.80;;;;;;5002017;28;20037;-69
2021/09/18 09:22:36;;;;;;;12.50;10.95;;;16.80;76.80;;;;;;5002766;28;20509;-68
2021/09/18 09:25:02;;;;;;;12.57;11.07;;;16.90;76.80;;;;;;5003357;28;20046;-71
2021/09/18 09:27:28;;;;;;;15.25;10.55;;;17.00;76.80;;;;;;5001638;28;20501;-68
2021/09/18 09:29:57;;;;;;;10.77;9.65;;;17.10;76.70;;;;;;5001811;28;20049;-68
2021/09/18 09:32:31;;;;;;;12.10;9.63;;;17.10;76.30;;;;;;5000816;28;20031;-68
2021/09/18 09:35:00;;;;;;;12.02;10.20;;;17.20;75.90;;;;;;5000667;28;20125;-69
2021/09/18 09:37:26;;;;;;;13.13;11.38;;;17.30;76.00;;;;;;5001380;28;20041;-68
2021/09/18 09:39:59;;;;;;;11.98;10.73;;;17.30;75.80;;;;;;5000292;28;20606;-66
2021/09/18 09:42:31;;;;;;;17.27;10.32;;;17.40;74.90;;;;;;5001804;28;20521;-70
2021/09/18 09:45:10;;;;;;;11.13;9.60;;;17.50;75.40;;;;;;5004002;28;20053;-68
2021/09/18 09:47:36;;;;;;;10.32;9.23;;;17.60;74.20;;;;;;5007020;28;20560;-67
2021/09/18 09:50:03;;;;;;;10.75;9.75;;;17.70;74.60;;;;;;5004226;28;20074;-70
2021/09/18 09:52:42;;;;;;;12.52;9.63;;;17.80;74.30;;;;;;5004064;28;20033;-69
2021/09/18 09:55:11;;;;;;;10.43;9.32;;;17.80;73.50;;;;;;5002749;28;20034;-69
2021/09/18 09:57:38;;;;;;;9.75;8.75;;;17.90;73.50;;;;;;5002303;28;20156;-68
2021/09/18 10:00:08;;;;;;;9.70;8.70;;;18.00;73.50;;;;;;5001842;28;20468;-68
2021/09/18 10:02:36;;;;;;;10.10;9.10;;;18.10;73.30;;;;;;5001645;28;20061;-69
2021/09/18 10:05:04;;;;;;;9.23;8.27;;;18.20;72.60;;;;;;5002167;28;20041;-68
2021/09/18 10:07:30;;;;;;;11.52;9.02;;;18.20;72.60;;;;;;5003054;28;20038;-68
2021/09/18 10:09:57;;;;;;;9.95;8.50;;;18.30;72.00;;;;;;5001087;28;20470;-69
2021/09/18 10:12:23;;;;;;;9.25;8.32;;;18.40;71.30;;;;;;4999533;28;20564;-68
2021/09/18 10:14:52;;;;;;;8.90;8.02;;;18.50;71.40;;;;;;5000566;28;20445;-68
2021/09/18 10:17:19;;;;;;;8.32;6.68;;;18.50;71.60;;;;;;4999347;28;20050;-68
2021/09/18 10:25:21;;;;;;;7.40;6.70;;;18.80;69.90;;;;;;4998312;28;20512;-68
2021/09/18 10:28:09;;;;;;;8.07;7.22;;;18.90;69.20;;;;;;5001206;28;20042;-68
2021/09/18 10:30:51;;;;;;;9.07;8.18;;;19.00;68.30;;;;;;5000362;28;20034;-69
2021/09/18 10:33:41;;;;;;;8.55;7.75;;;19.10;67.80;;;;;;5011819;28;20034;-68
2021/09/18 10:36:12;;;;;;;6.47;5.95;;;19.10;68.40;;;;;;5000576;28;20504;-69
2021/09/18 10:38:48;;;;;;;6.20;5.60;;;19.20;68.50;;;;;;4999467;28;20306;-69
2021/09/18 10:41:27;;;;;;;4.30;3.90;;;19.20;67.80;;;;;;4999498;28;20044;-68
2021/09/18 10:43:58;;;;;;;4.45;4.05;;;19.30;67.10;;;;;;4999610;28;20050;-69
2021/09/18 10:46:45;;;;;;;6.15;5.50;;;19.40;67.20;;;;;;4999540;28;20574;-69
2021/09/18 10:49:33;;;;;;;5.45;4.75;;;19.40;63.60;;;;;;4997008;28;20047;-69
2021/09/18 10:52:17;;;;;;;4.20;3.80;;;19.50;64.30;;;;;;5014781;28;20428;-68
2021/09/18 10:55:10;;;;;;;4.22;3.92;;;19.60;64.70;;;;;;4999244;28;20065;-68
2021/09/18 10:57:38;;;;;;;4.35;3.95;;;19.70;64.30;;;;;;4998447;28;20033;-68
2021/09/18 11:00:24;;;;;;;4.05;3.70;;;19.70;65.50;;;;;;4998198;28;20032;-69
2021/09/18 11:02:49;;;;;;;3.47;3.17;;;19.80;63.40;;;;;;4998635;28;20042;-69
2021/09/18 11:05:21;;;;;;;3.45;3.10;;;19.90;64.60;;;;;;5000419;28;20030;-69
2021/09/18 11:08:00;;;;;;;3.70;3.40;;;19.90;63.40;;;;;;4999205;28;20124;-68
2021/09/18 11:10:29;;;;;;;2.92;2.72;;;20.00;61.90;;;;;;4999865;28;20045;-68
2021/09/18 11:13:10;;;;;;;3.70;3.35;;;20.00;62.90;;;;;;5000156;28;20033;-69
2021/09/18 11:15:57;;;;;;;3.92;3.60;;;20.10;61.20;;;;;;5014381;28;20416;-69
2021/09/18 11:18:40;;;;;;;4.57;2.95;;;20.10;61.80;;;;;;5000839;28;20109;-68
2021/09/18 11:21:26;;;;;;;3.42;3.22;;;20.20;61.20;;;;;;4999872;28;20041;-70
2021/09/18 11:24:14;;;;;;;3.65;3.10;;;20.30;61.40;;;;;;5000969;28;20085;-68
2021/09/18 11:26:45;;;;;;;3.15;2.92;;;20.30;60.40;;;;;;5000201;28;20030;-69
2021/09/18 11:29:20;;;;;;;3.28;3.00;;;20.40;61.10;;;;;;4997658;28;20125;-68
2021/09/18 11:31:55;;;;;;;3.30;3.00;;;20.40;59.90;;;;;;4999024;28;20029;-68
2021/09/18 11:34:30;;;;;;;3.22;3.03;;;20.50;58.70;;;;;;4999559;28;20042;-68
2021/09/18 11:37:00;;;;;;;2.72;2.53;;;20.50;57.70;;;;;;4999699;28;20041;-69
2021/09/18 11:39:56;;;;;;;3.00;2.75;;;20.50;57.90;;;;;;5000397;28;20057;-68
2021/09/18 11:42:31;;;;;;;2.75;2.55;;;20.60;57.30;;;;;;4987224;28;20641;-69
2021/09/18 11:45:02;;;;;;;;;;;20.60;57.70;;;;;;5000865;28;20328;-69
2021/09/18 11:47:31;;;;;;;3.22;3.03;;;20.60;59.40;;;;;;4999933;28;19968;-69
2021/09/18 11:49:58;;;;;;;3.20;3.00;;;20.60;58.30;;;;;;4999576;28;20096;-68
2021/09/18 11:52:35;;;;;;;3.08;2.88;;;20.70;58.90;;;;;;4998570;28;20040;-69
2021/09/18 11:55:01;;;;;;;2.90;2.70;;;20.70;57.00;;;;;;5014419;28;20034;-69
2021/09/18 11:57:26;;;;;;;3.05;2.80;;;20.70;58.10;;;;;;5000092;28;20461;-69
2021/09/18 11:59:52;;;;;;;2.75;2.55;;;20.80;58.00;;;;;;4999412;28;20064;-69
2021/09/18 12:02:31;;;;;;;2.35;2.15;;;20.80;56.90;;;;;;4997738;28;20030;-68
2021/09/18 12:04:57;;;;;;;1.98;1.88;;;20.80;56.70;;;;;;4999274;28;20034;-68
2021/09/18 12:07:24;;;;;;;1.92;1.83;;;20.90;57.90;;;;;;4993740;28;20045;-70
2021/09/18 12:09:50;;;;;;;1.67;1.58;;;20.90;57.40;;;;;;4978643;28;20042;-68
2021/09/18 12:12:28;;;;;;;1.80;1.65;;;21.00;57.00;;;;;;4980166;28;20045;-67
2021/09/18 12:14:55;;;;;;;2.40;2.20;;;21.00;56.00;;;;;;4998961;28;20060;-69
2021/09/18 12:17:21;;;;;;;2.38;2.17;;;21.10;56.80;;;;;;4991468;28;20042;-70
2021/09/18 12:19:48;;;;;;;1.90;1.80;;;21.10;56.60;;;;;;4982951;28;20038;-69
2021/09/18 12:22:14;;;;;;;1.90;1.80;;;21.20;56.90;;;;;;4983676;28;20599;-69
2021/09/18 12:24:44;;;;;;;1.70;1.60;;;21.30;57.00;;;;;;4983171;28;20026;-68
2021/09/18 12:27:28;;;;;;;1.60;1.50;;;21.30;56.60;;;;;;4984787;28;20527;-70
2021/09/18 12:29:56;;;;;;;1.70;1.58;;;21.40;56.10;;;;;;4983365;28;20157;-68
2021/09/18 12:32:22;;;;;;;2.40;1.30;;;21.40;56.20;;;;;;4982946;28;20786;-69
2021/09/18 12:34:49;;;;;;;1.17;1.10;;;21.50;55.60;;;;;;4984296;28;20038;-69
2021/09/18 12:37:17;;;;;;;1.40;1.30;;;21.50;55.00;;;;;;4982880;28;20058;-69
2021/09/18 12:39:43;;;;;;;1.35;1.25;;;21.50;54.70;;;;;;4984131;28;20045;-68
2021/09/18 12:42:10;;;;;;;1.58;1.48;;;21.50;54.50;;;;;;4980671;28;20454;-68
2021/09/18 12:44:40;;;;;;;1.27;1.20;;;21.50;54.40;;;;;;4981813;28;20034;-68
2021/09/18 12:47:06;;;;;;;1.60;1.25;;;21.50;53.80;;;;;;4984037;28;20055;-69
2021/09/18 12:49:33;;;;;;;1.30;1.20;;;21.50;54.20;;;;;;4983095;28;20058;-68
2021/09/18 12:52:04;;;;;;;1.50;1.40;;;21.50;54.30;;;;;;4983128;28;20042;-69